Time;durP1;ratioP1;P1;durP2;ratioP2;P2;SDS_P1;SDS_P2;PMS_P1;PMS_P2;Temp;Humidity;BMP_temperature;BMP_pressure;BME280_temperature;BME280_humidity;BME280_pressure;Samples;Min_cycle;Max_cycle;Signal;HPM_P1;HPM_P2
2022/09/14 00:01:42;;;;;;;3.38;1.13;;;12.30;99.90;;;;;;5075332;28;20071;-69
2022/09/14 00:04:14;;;;;;;3.28;1.30;;;12.20;99.90;;;;;;5073909;28;20516;-69
2022/09/14 00:06:40;;;;;;;4.10;1.17;;;12.20;99.90;;;;;;5073991;28;20059;-69
2022/09/14 00:09:07;;;;;;;2.40;1.10;;;12.20;99.90;;;;;;5075536;28;20051;-69
2022/09/14 00:11:34;;;;;;;5.22;1.40;;;12.20;99.90;;;;;;5075080;28;20040;-69
2022/09/14 00:14:01;;;;;;;3.42;1.20;;;12.30;99.90;;;;;;5074872;28;20048;-69
2022/09/14 00:16:33;;;;;;;3.38;1.40;;;12.20;99.90;;;;;;5075168;28;20051;-69
2022/09/14 00:19:04;;;;;;;3.00;1.02;;;12.20;99.90;;;;;;5073712;28;20070;-69
2022/09/14 00:21:32;;;;;;;1.65;1.00;;;12.20;99.90;;;;;;5074193;28;20044;-69
2022/09/14 00:23:58;;;;;;;3.63;1.20;;;12.10;99.90;;;;;;5073580;28;20052;-69
2022/09/14 00:26:25;;;;;;;3.85;1.13;;;11.90;99.90;;;;;;5074372;28;20539;-69
2022/09/14 00:28:56;;;;;;;3.58;1.27;;;11.90;99.90;;;;;;5074617;28;20048;-69
2022/09/14 00:31:23;;;;;;;3.40;1.20;;;11.80;99.90;;;;;;5074978;28;20484;-69
2022/09/14 00:33:50;;;;;;;3.05;1.00;;;11.70;99.90;;;;;;5074551;28;20052;-69
2022/09/14 00:36:21;;;;;;;2.92;1.10;;;11.60;99.90;;;;;;5074302;28;20045;-70
2022/09/14 00:38:48;;;;;;;3.08;1.20;;;11.60;99.90;;;;;;5075155;28;20044;-69
2022/09/14 00:41:20;;;;;;;3.08;1.20;;;11.60;99.90;;;;;;5074511;28;20052;-69
2022/09/14 00:43:52;;;;;;;2.25;1.20;;;11.60;99.90;;;;;;5074603;28;20047;-69
2022/09/14 00:46:18;;;;;;;3.42;1.23;;;11.70;99.90;;;;;;5074007;28;20106;-69
2022/09/14 00:48:43;;;;;;;2.67;1.50;;;11.80;99.90;;;;;;5074779;28;20377;-70
2022/09/14 00:51:09;;;;;;;4.15;1.50;;;11.90;99.90;;;;;;5072641;28;20128;-69
2022/09/14 00:53:35;;;;;;;3.33;1.40;;;11.90;99.90;;;;;;5074363;28;20040;-69
2022/09/14 00:56:01;;;;;;;2.55;1.40;;;11.90;99.90;;;;;;5073999;28;20105;-69
2022/09/14 00:58:27;;;;;;;2.40;1.60;;;12.00;99.90;;;;;;5074102;28;20055;-69
2022/09/14 01:00:53;;;;;;;2.83;1.50;;;11.90;99.90;;;;;;5074062;28;20047;-69
2022/09/14 01:03:18;;;;;;;2.83;1.50;;;11.90;99.90;;;;;;5074282;28;20386;-69
2022/09/14 01:06:00;;;;;;;3.35;1.50;;;11.90;99.90;;;;;;5073861;28;20048;-69
2022/09/14 01:08:56;;;;;;;2.70;1.42;;;11.90;99.90;;;;;;5072922;28;20139;-70
2022/09/14 01:11:42;;;;;;;3.05;1.65;;;11.90;99.90;;;;;;5073746;28;20109;-70
2022/09/14 01:14:39;;;;;;;3.88;1.50;;;11.80;99.90;;;;;;5074432;28;20084;-69
2022/09/14 01:17:15;;;;;;;2.22;1.27;;;11.80;99.90;;;;;;5073528;28;20044;-69
2022/09/14 01:19:40;;;;;;;2.83;1.30;;;11.80;99.90;;;;;;5074353;28;20378;-69
2022/09/14 01:22:17;;;;;;;2.10;1.30;;;11.70;99.90;;;;;;5073688;28;20041;-69
2022/09/14 01:25:05;;;;;;;3.10;1.38;;;11.70;99.90;;;;;;5073695;28;20048;-69
2022/09/14 01:27:39;;;;;;;2.58;1.15;;;11.60;99.90;;;;;;5074219;28;20071;-69
2022/09/14 01:30:16;;;;;;;2.45;0.88;;;11.60;99.90;;;;;;5073956;28;20083;-69
2022/09/14 01:32:47;;;;;;;;;;;11.60;99.90;;;;;;5074810;28;20040;-69
2022/09/14 01:35:29;;;;;;;2.20;0.85;;;11.50;99.90;;;;;;5073514;28;20293;-69
2022/09/14 01:38:03;;;;;;;1.90;1.00;;;11.40;99.90;;;;;;5073073;28;20471;-69
2022/09/14 01:40:41;;;;;;;1.70;0.90;;;11.30;99.90;;;;;;5073491;28;20127;-69
2022/09/14 01:43:16;;;;;;;2.70;1.38;;;11.30;99.90;;;;;;5073728;28;20541;-69
2022/09/14 01:45:48;;;;;;;3.05;1.00;;;11.20;99.90;;;;;;5073939;28;20076;-69
2022/09/14 01:48:18;;;;;;;2.40;1.13;;;11.20;99.90;;;;;;5074004;28;20503;-69
2022/09/14 01:50:47;;;;;;;2.72;1.17;;;11.20;99.90;;;;;;5073694;28;20374;-70
2022/09/14 01:53:43;;;;;;;2.70;1.10;;;11.30;99.90;;;;;;5073005;28;20473;-69
2022/09/14 01:56:15;;;;;;;2.50;1.30;;;11.20;99.90;;;;;;5072559;28;20063;-69
2022/09/14 01:59:08;;;;;;;2.33;1.13;;;11.20;99.90;;;;;;5073263;28;20117;-69
2022/09/14 02:01:43;;;;;;;2.90;1.00;;;11.20;99.90;;;;;;5067356;28;20449;-69
2022/09/14 02:04:13;;;;;;;2.42;0.90;;;11.20;99.90;;;;;;5072457;28;20128;-69
2022/09/14 02:06:46;;;;;;;4.53;1.20;;;11.30;99.90;;;;;;5073188;28;20044;-69
2022/09/14 02:09:18;;;;;;;5.03;1.10;;;11.20;99.90;;;;;;5072999;28;20063;-69
2022/09/14 02:11:44;;;;;;;1.83;1.10;;;11.20;99.90;;;;;;5073653;28;20048;-69
2022/09/14 02:14:10;;;;;;;2.25;1.10;;;11.20;99.90;;;;;;5072669;28;20106;-69
2022/09/14 02:16:36;;;;;;;3.45;1.75;;;11.20;99.90;;;;;;5073244;28;20044;-69
2022/09/14 02:19:01;;;;;;;2.70;1.15;;;11.20;99.90;;;;;;5073015;28;20131;-70
2022/09/14 02:21:32;;;;;;;3.10;1.20;;;11.30;99.90;;;;;;5072974;28;20040;-69
2022/09/14 02:23:59;;;;;;;3.90;1.25;;;11.20;99.90;;;;;;5072956;28;20044;-70
2022/09/14 02:26:25;;;;;;;2.08;1.10;;;11.30;99.90;;;;;;5073633;28;20059;-69
2022/09/14 02:28:54;;;;;;;3.28;1.10;;;11.30;99.90;;;;;;5072494;28;20347;-69
2022/09/14 02:32:06;;;;;;;2.80;1.10;;;11.30;99.90;;;;;;5072909;28;20044;-69
2022/09/14 02:34:34;;;;;;;1.90;1.00;;;11.20;99.90;;;;;;5070815;28;20056;-69
2022/09/14 02:37:36;;;;;;;2.45;0.98;;;11.10;99.90;;;;;;5073329;28;20041;-69
2022/09/14 02:40:14;;;;;;;3.40;1.30;;;11.10;99.90;;;;;;5072801;28;20045;-69
2022/09/14 02:43:09;;;;;;;4.43;1.33;;;11.00;99.90;;;;;;5073059;28;20521;-69
2022/09/14 02:45:55;;;;;;;2.78;1.10;;;11.00;99.90;;;;;;5072807;28;20131;-69
2022/09/14 02:48:23;;;;;;;1.70;1.10;;;10.90;99.90;;;;;;5073355;28;20443;-69
2022/09/14 02:51:05;;;;;;;2.35;1.10;;;10.80;99.90;;;;;;5071565;28;20375;-69
2022/09/14 02:53:45;;;;;;;2.47;1.20;;;10.80;99.90;;;;;;5072789;28;20036;-69
2022/09/14 02:56:12;;;;;;;5.22;1.45;;;10.80;99.90;;;;;;5073330;28;20428;-69
2022/09/14 02:58:43;;;;;;;2.70;1.20;;;10.80;99.90;;;;;;5072431;28;20560;-69
2022/09/14 03:01:12;;;;;;;3.10;1.30;;;10.90;99.90;;;;;;5072738;28;20405;-69
2022/09/14 03:03:37;;;;;;;2.03;1.20;;;10.90;99.90;;;;;;5072477;28;20098;-69
2022/09/14 03:06:04;;;;;;;3.58;1.50;;;10.80;99.90;;;;;;5072803;28;20084;-70
2022/09/14 03:08:30;;;;;;;2.38;1.40;;;10.90;99.90;;;;;;5073064;28;20094;-69
2022/09/14 03:10:56;;;;;;;2.20;1.27;;;11.00;99.90;;;;;;5073140;28;20405;-69
2022/09/14 03:13:22;;;;;;;3.00;1.40;;;11.00;99.90;;;;;;5071541;28;20049;-69
2022/09/14 03:15:48;;;;;;;3.67;1.50;;;11.00;99.90;;;;;;5074647;28;20549;-69
2022/09/14 03:18:14;;;;;;;3.08;1.80;;;11.00;99.90;;;;;;5076151;28;20080;-69
2022/09/14 03:20:39;;;;;;;2.75;1.40;;;11.10;99.90;;;;;;5076087;28;20347;-69
2022/09/14 03:23:07;;;;;;;3.53;1.55;;;11.10;99.90;;;;;;5076740;28;20083;-69
2022/09/14 03:25:38;;;;;;;2.47;1.40;;;11.10;99.90;;;;;;5075865;28;20127;-70
2022/09/14 03:28:05;;;;;;;2.38;1.40;;;11.10;99.90;;;;;;5075943;28;20076;-69
2022/09/14 03:30:31;;;;;;;2.88;1.13;;;11.20;99.90;;;;;;5076438;28;20045;-69
2022/09/14 03:32:58;;;;;;;4.85;1.60;;;11.10;99.90;;;;;;5076283;28;20128;-69
2022/09/14 03:35:24;;;;;;;3.35;1.33;;;11.20;99.90;;;;;;5058021;28;20048;-69
2022/09/14 03:37:50;;;;;;;2.95;1.20;;;11.20;99.90;;;;;;5075768;28;20051;-69
2022/09/14 03:40:16;;;;;;;2.13;1.25;;;11.20;99.90;;;;;;5075482;28;20045;-69
2022/09/14 03:42:44;;;;;;;2.60;1.20;;;11.30;99.90;;;;;;5075694;28;20474;-69
2022/09/14 03:45:11;;;;;;;2.65;1.20;;;11.30;99.90;;;;;;5075522;28;20044;-69
2022/09/14 03:47:37;;;;;;;3.17;1.38;;;11.40;99.90;;;;;;5076138;28;20052;-69
2022/09/14 03:50:03;;;;;;;2.55;1.50;;;11.40;99.90;;;;;;5076159;28;20063;-69
2022/09/14 03:52:28;;;;;;;3.38;1.30;;;11.50;99.90;;;;;;5075994;28;20048;-69
2022/09/14 03:54:54;;;;;;;2.85;1.20;;;11.50;99.90;;;;;;5075954;28;20045;-69
2022/09/14 03:57:20;;;;;;;2.25;1.40;;;11.60;99.90;;;;;;5075878;28;20121;-68
2022/09/14 03:59:45;;;;;;;3.40;1.48;;;11.60;99.90;;;;;;5077336;28;20052;-69
2022/09/14 04:02:11;;;;;;;2.25;1.48;;;11.70;99.90;;;;;;5076037;28;20044;-69
2022/09/14 04:04:37;;;;;;;3.00;1.30;;;11.70;99.90;;;;;;5075315;28;20083;-70
2022/09/14 04:07:02;;;;;;;2.38;0.90;;;11.80;99.90;;;;;;5075057;28;20126;-69
2022/09/14 04:09:28;;;;;;;3.10;1.13;;;11.80;99.90;;;;;;5074827;28;20055;-69
2022/09/14 04:11:54;;;;;;;3.75;1.17;;;11.80;99.90;;;;;;5075063;28;20104;-69
2022/09/14 04:14:19;;;;;;;3.35;1.30;;;11.80;99.90;;;;;;5073565;28;20080;-69
2022/09/14 04:16:45;;;;;;;2.00;1.33;;;11.80;99.90;;;;;;5074735;28;20066;-69
2022/09/14 04:19:11;;;;;;;3.80;1.63;;;11.80;99.90;;;;;;5075056;28;20049;-69
2022/09/14 04:21:37;;;;;;;3.13;1.50;;;11.80;99.90;;;;;;5074172;28;20059;-69
2022/09/14 04:24:03;;;;;;;2.42;1.42;;;11.90;99.90;;;;;;5073644;28;20127;-69
2022/09/14 04:26:30;;;;;;;3.60;1.50;;;11.90;99.90;;;;;;5074816;28;20041;-69
2022/09/14 04:28:56;;;;;;;2.60;1.30;;;11.90;99.90;;;;;;5074723;28;20121;-69
2022/09/14 04:31:23;;;;;;;3.25;1.60;;;11.90;99.90;;;;;;5074800;28;20045;-69
2022/09/14 04:33:49;;;;;;;2.78;1.60;;;12.00;99.90;;;;;;5074393;28;20065;-69
2022/09/14 04:36:21;;;;;;;4.18;1.58;;;12.00;99.90;;;;;;5075069;28;20436;-69
2022/09/14 04:38:47;;;;;;;4.88;1.90;;;12.10;99.90;;;;;;5074540;28;20052;-70
2022/09/14 04:41:15;;;;;;;3.70;1.80;;;12.10;99.90;;;;;;5074411;28;20096;-70
2022/09/14 04:43:42;;;;;;;3.72;1.88;;;12.10;99.90;;;;;;5074409;28;20044;-70
2022/09/14 04:46:17;;;;;;;3.45;1.70;;;12.10;99.90;;;;;;5074169;28;20044;-70
2022/09/14 04:48:43;;;;;;;3.92;1.75;;;12.20;99.90;;;;;;5074331;28;20127;-70
2022/09/14 04:51:17;;;;;;;2.95;1.75;;;12.20;99.90;;;;;;5074315;28;20136;-70
2022/09/14 04:53:45;;;;;;;2.92;1.92;;;12.20;99.90;;;;;;5074814;28;20056;-70
2022/09/14 04:56:12;;;;;;;3.83;1.80;;;12.20;99.90;;;;;;5073960;28;20600;-70
2022/09/14 04:58:41;;;;;;;4.57;2.00;;;12.20;99.90;;;;;;5073148;28;20559;-70
2022/09/14 05:01:09;;;;;;;4.55;1.70;;;12.20;99.90;;;;;;5074122;28;20048;-70
2022/09/14 05:03:39;;;;;;;3.53;1.67;;;12.20;99.90;;;;;;5073969;28;20400;-70
2022/09/14 05:06:11;;;;;;;4.93;1.70;;;12.30;99.90;;;;;;5073902;28;20040;-70
2022/09/14 05:08:37;;;;;;;4.18;1.45;;;12.30;99.90;;;;;;5074417;28;20060;-70
2022/09/14 05:11:05;;;;;;;2.47;1.58;;;12.30;99.90;;;;;;5073970;28;20049;-70
2022/09/14 05:13:32;;;;;;;5.40;2.00;;;12.40;99.90;;;;;;5073748;28;20123;-71
2022/09/14 05:16:09;;;;;;;4.15;1.65;;;12.30;99.90;;;;;;5074399;28;20051;-70
2022/09/14 05:18:35;;;;;;;3.75;1.30;;;12.40;99.90;;;;;;5072658;28;20040;-70
2022/09/14 05:21:07;;;;;;;2.80;1.60;;;12.40;99.90;;;;;;5074471;28;20048;-70
2022/09/14 05:23:33;;;;;;;2.70;1.60;;;12.40;99.90;;;;;;5074285;28;20057;-70
2022/09/14 05:25:59;;;;;;;2.92;1.20;;;12.40;99.90;;;;;;5073906;28;20037;-70
2022/09/14 05:28:26;;;;;;;3.75;1.40;;;12.50;99.90;;;;;;5072910;28;20095;-70
2022/09/14 05:30:52;;;;;;;4.65;1.40;;;12.50;99.90;;;;;;5073625;28;20048;-70
2022/09/14 05:33:18;;;;;;;4.07;1.38;;;12.50;99.90;;;;;;5073877;28;20044;-70
2022/09/14 05:35:44;;;;;;;3.60;1.30;;;12.50;99.90;;;;;;5073480;28;20242;-70
2022/09/14 05:38:10;;;;;;;2.90;1.30;;;12.60;99.90;;;;;;5073234;28;20052;-70
2022/09/14 05:40:35;;;;;;;2.97;1.50;;;12.60;99.90;;;;;;5073499;28;20511;-70
2022/09/14 05:43:01;;;;;;;2.10;1.30;;;12.60;99.90;;;;;;5072655;28;20063;-70
2022/09/14 05:45:27;;;;;;;2.95;1.20;;;12.70;99.90;;;;;;5073338;28;20437;-70
2022/09/14 05:47:52;;;;;;;2.53;1.20;;;12.70;99.90;;;;;;5073353;28;20137;-70
2022/09/14 05:50:18;;;;;;;4.28;1.40;;;12.70;99.90;;;;;;5073876;28;20123;-70
2022/09/14 05:52:44;;;;;;;2.47;1.10;;;12.70;99.90;;;;;;5073369;28;20048;-70
2022/09/14 05:55:09;;;;;;;4.13;1.40;;;12.70;99.90;;;;;;5073874;28;20415;-70
2022/09/14 05:57:35;;;;;;;2.97;1.27;;;12.80;99.90;;;;;;5074082;28;20052;-70
2022/09/14 06:00:01;;;;;;;3.28;1.40;;;12.80;99.90;;;;;;5072027;28;20373;-70
2022/09/14 06:02:27;;;;;;;4.22;1.30;;;12.80;99.90;;;;;;5073973;28;20041;-70
2022/09/14 06:04:53;;;;;;;4.18;1.45;;;12.90;99.90;;;;;;5073168;28;20071;-70
2022/09/14 06:07:18;;;;;;;3.08;1.55;;;12.80;99.90;;;;;;5073126;28;20489;-70
2022/09/14 06:09:44;;;;;;;2.25;1.42;;;12.90;99.90;;;;;;5073736;28;20135;-70
2022/09/14 06:12:10;;;;;;;3.40;1.35;;;12.90;99.90;;;;;;5073075;28;20048;-70
2022/09/14 06:14:36;;;;;;;3.65;1.52;;;13.00;99.90;;;;;;5073345;28;20076;-70
2022/09/14 06:17:01;;;;;;;4.80;1.75;;;13.00;99.90;;;;;;5073059;28;20401;-65
2022/09/14 06:19:27;;;;;;;4.68;1.55;;;13.00;99.90;;;;;;5073495;28;20373;-65
2022/09/14 06:21:53;;;;;;;4.95;1.45;;;13.00;99.90;;;;;;5072990;28;20373;-65
2022/09/14 06:24:18;;;;;;;3.35;1.33;;;13.10;99.90;;;;;;5073045;28;20052;-65
2022/09/14 06:26:44;;;;;;;3.33;1.45;;;13.00;99.90;;;;;;5072953;28;20048;-65
2022/09/14 06:29:10;;;;;;;2.60;1.35;;;13.10;99.90;;;;;;5073099;28;20048;-65
2022/09/14 06:31:35;;;;;;;3.10;1.50;;;13.10;99.90;;;;;;5072935;28;20059;-65
2022/09/14 06:34:02;;;;;;;2.85;1.30;;;13.10;99.90;;;;;;5072822;28;20055;-65
2022/09/14 06:36:28;;;;;;;2.92;1.20;;;13.20;99.90;;;;;;5055045;28;20041;-65
2022/09/14 06:38:55;;;;;;;2.95;1.27;;;13.20;99.90;;;;;;5072907;28;20196;-65
2022/09/14 06:41:25;;;;;;;3.65;1.17;;;13.30;99.90;;;;;;5071718;28;20044;-65
2022/09/14 06:43:54;;;;;;;3.50;1.27;;;13.30;99.90;;;;;;5072785;28;20048;-65
2022/09/14 06:46:26;;;;;;;2.97;1.35;;;13.30;99.90;;;;;;5071953;28;20048;-65
2022/09/14 06:49:03;;;;;;;3.80;1.15;;;13.40;99.90;;;;;;5073347;28;20044;-65
2022/09/14 06:51:35;;;;;;;2.45;1.52;;;13.50;99.90;;;;;;5076160;28;20185;-65
2022/09/14 06:54:02;;;;;;;3.25;1.35;;;13.50;99.90;;;;;;5076630;28;20123;-65
2022/09/14 06:56:31;;;;;;;1.77;1.10;;;13.60;99.90;;;;;;5076509;28;20047;-65
2022/09/14 06:58:58;;;;;;;4.38;1.30;;;13.70;99.90;;;;;;5076496;28;20044;-65
2022/09/14 07:01:25;;;;;;;2.58;1.02;;;13.70;99.90;;;;;;5076661;28;20070;-65
2022/09/14 07:03:52;;;;;;;3.50;1.00;;;13.80;99.90;;;;;;5076144;28;20057;-65
2022/09/14 07:06:22;;;;;;;4.78;1.23;;;13.90;99.90;;;;;;5076297;28;20054;-65
2022/09/14 07:08:48;;;;;;;3.30;1.02;;;14.00;99.90;;;;;;5076325;28;20041;-65
2022/09/14 07:11:16;;;;;;;2.65;1.10;;;14.00;99.90;;;;;;5076760;28;20417;-65
2022/09/14 07:13:43;;;;;;;2.72;1.38;;;14.30;99.90;;;;;;5075919;28;20056;-65
2022/09/14 07:16:08;;;;;;;3.20;1.20;;;14.20;99.90;;;;;;5075627;28;20127;-65
2022/09/14 07:18:35;;;;;;;6.38;1.33;;;14.20;99.90;;;;;;5076127;28;20044;-65
2022/09/14 07:21:06;;;;;;;4.40;1.20;;;14.30;99.90;;;;;;5076004;28;20040;-65
2022/09/14 07:23:34;;;;;;;3.05;1.02;;;14.30;99.90;;;;;;5076619;28;20072;-65
2022/09/14 07:26:08;;;;;;;4.10;1.17;;;14.40;99.90;;;;;;5074907;28;20366;-65
2022/09/14 07:28:36;;;;;;;3.85;1.10;;;14.50;99.90;;;;;;5075800;28;20048;-65
2022/09/14 07:31:02;;;;;;;3.25;1.02;;;14.50;99.90;;;;;;5075624;28;20497;-65
2022/09/14 07:33:28;;;;;;;3.50;1.20;;;14.60;99.90;;;;;;5076075;28;20502;-65
2022/09/14 07:35:54;;;;;;;2.78;1.10;;;14.70;99.90;;;;;;5075390;28;20493;-65
2022/09/14 07:38:20;;;;;;;3.45;0.90;;;14.70;99.90;;;;;;5075724;28;20102;-66
2022/09/14 07:40:46;;;;;;;4.05;1.35;;;14.80;99.90;;;;;;5075770;28;20086;-65
2022/09/14 07:43:11;;;;;;;2.60;0.93;;;14.90;99.90;;;;;;5075759;28;20051;-65
2022/09/14 07:45:37;;;;;;;4.15;1.17;;;15.00;99.90;;;;;;5076187;28;20048;-65
2022/09/14 07:48:04;;;;;;;3.30;1.20;;;15.10;99.90;;;;;;5074397;28;20044;-65
2022/09/14 07:50:30;;;;;;;3.10;1.25;;;15.20;99.90;;;;;;5075310;28;20077;-65
2022/09/14 07:52:56;;;;;;;2.13;1.15;;;15.20;99.90;;;;;;5074359;28;20446;-65
2022/09/14 07:55:22;;;;;;;3.53;1.20;;;15.30;99.90;;;;;;5076234;28;20072;-64
2022/09/14 07:57:48;;;;;;;3.05;1.02;;;15.40;99.90;;;;;;5075391;28;20040;-65
2022/09/14 08:00:15;;;;;;;2.25;1.15;;;15.50;99.90;;;;;;5075324;28;20053;-65
2022/09/14 08:02:41;;;;;;;2.20;0.90;;;15.50;99.90;;;;;;5074993;28;20040;-65
2022/09/14 08:05:07;;;;;;;1.77;0.73;;;15.60;99.90;;;;;;5075445;28;20098;-64
2022/09/14 08:07:33;;;;;;;4.43;1.15;;;15.70;99.90;;;;;;5075266;28;20110;-65
2022/09/14 08:09:59;;;;;;;1.98;0.90;;;15.70;99.90;;;;;;5074883;28;20048;-65
2022/09/14 08:12:25;;;;;;;2.85;0.80;;;15.80;99.90;;;;;;5073899;28;20049;-65
2022/09/14 08:14:52;;;;;;;2.53;1.00;;;15.90;99.90;;;;;;5075501;28;20070;-65
2022/09/14 08:17:21;;;;;;;2.58;0.90;;;15.90;99.90;;;;;;5075025;28;20040;-65
2022/09/14 08:19:47;;;;;;;3.50;0.82;;;16.00;99.90;;;;;;5073869;28;20047;-65
2022/09/14 08:22:12;;;;;;;3.35;0.90;;;16.10;99.90;;;;;;5075092;28;20040;-65
2022/09/14 08:24:39;;;;;;;2.17;0.80;;;16.10;99.90;;;;;;5075395;28;20554;-65
2022/09/14 08:27:04;;;;;;;1.92;0.85;;;16.20;99.90;;;;;;5074637;28;20091;-65
2022/09/14 08:29:30;;;;;;;3.90;0.77;;;16.30;99.90;;;;;;5074700;28;20080;-65
2022/09/14 08:31:57;;;;;;;2.67;0.75;;;16.30;99.90;;;;;;5074621;28;20131;-65
2022/09/14 08:34:23;;;;;;;3.38;0.70;;;16.40;99.90;;;;;;5074964;28;20410;-65
2022/09/14 08:36:48;;;;;;;1.55;1.05;;;16.40;99.90;;;;;;5074505;28;20048;-65
2022/09/14 08:39:15;;;;;;;1.75;0.45;;;16.50;99.90;;;;;;5074272;28;20374;-66
2022/09/14 08:41:52;;;;;;;3.65;0.82;;;16.50;99.90;;;;;;5074736;28;20059;-66
2022/09/14 08:44:30;;;;;;;2.25;0.70;;;16.60;99.90;;;;;;5074361;28;20051;-66
2022/09/14 08:47:04;;;;;;;1.38;0.47;;;16.60;99.90;;;;;;5074271;28;20115;-66
2022/09/14 08:49:50;;;;;;;0.90;0.50;;;16.70;99.90;;;;;;5073913;28;20135;-66
2022/09/14 08:52:33;;;;;;;2.67;0.47;;;16.80;99.90;;;;;;5074594;28;20071;-66
2022/09/14 08:55:01;;;;;;;1.63;0.50;;;16.80;99.90;;;;;;5074224;28;20040;-66
2022/09/14 08:57:47;;;;;;;2.53;0.77;;;17.00;99.90;;;;;;5073439;28;20048;-66
2022/09/14 09:00:23;;;;;;;1.02;0.60;;;17.10;99.90;;;;;;5073929;28;20374;-66
2022/09/14 09:02:58;;;;;;;;;;;17.10;99.90;;;;;;5074235;28;20052;-66
2022/09/14 09:05:42;;;;;;;1.05;0.50;;;17.20;99.90;;;;;;5073248;28;19931;-66
2022/09/14 09:08:23;;;;;;;2.25;0.65;;;17.20;99.90;;;;;;5074035;28;20060;-66
2022/09/14 09:10:53;;;;;;;1.35;0.50;;;17.20;99.90;;;;;;5074334;28;20067;-66
2022/09/14 09:13:22;;;;;;;1.95;0.52;;;17.20;99.90;;;;;;5072877;28;20416;-66
2022/09/14 09:15:50;;;;;;;2.10;0.40;;;17.30;99.90;;;;;;5073768;28;20090;-66
2022/09/14 09:18:31;;;;;;;1.35;0.40;;;17.30;99.90;;;;;;5074245;28;20054;-66
2022/09/14 09:21:02;;;;;;;1.92;0.50;;;17.40;99.90;;;;;;5073629;28;20056;-66
2022/09/14 09:23:31;;;;;;;1.67;0.60;;;17.30;99.90;;;;;;5073559;28;20040;-66
2022/09/14 09:26:04;;;;;;;2.85;0.50;;;17.30;99.90;;;;;;5073561;28;20045;-66
2022/09/14 09:28:31;;;;;;;1.83;0.50;;;17.30;99.90;;;;;;5074033;28;20058;-66
2022/09/14 09:31:06;;;;;;;1.88;0.50;;;17.30;99.90;;;;;;5073407;28;20048;-66
2022/09/14 09:33:32;;;;;;;2.20;0.63;;;17.30;99.90;;;;;;5073385;28;20045;-65
2022/09/14 09:35:58;;;;;;;1.65;0.40;;;17.40;99.90;;;;;;5073413;28;20055;-65
2022/09/14 09:38:27;;;;;;;2.08;0.60;;;17.40;99.90;;;;;;5073337;28;20131;-65
2022/09/14 09:41:06;;;;;;;1.83;0.50;;;17.50;99.90;;;;;;5072014;28;20466;-65
2022/09/14 09:43:32;;;;;;;1.23;0.43;;;17.50;99.90;;;;;;5072979;28;20490;-66
2022/09/14 09:46:04;;;;;;;2.33;0.98;;;17.60;99.90;;;;;;5073699;28;20052;-65
2022/09/14 09:48:48;;;;;;;1.98;0.50;;;17.70;99.90;;;;;;5072144;28;20127;-66
2022/09/14 09:51:23;;;;;;;1.98;0.50;;;17.80;99.90;;;;;;5073319;28;20045;-66
2022/09/14 09:54:03;;;;;;;0.90;0.40;;;18.00;99.90;;;;;;5073038;28;20486;-66
2022/09/14 09:56:32;;;;;;;2.35;0.40;;;18.20;99.90;;;;;;5073199;28;20044;-65
2022/09/14 09:58:58;;;;;;;1.67;0.40;;;18.40;99.90;;;;;;5073481;28;20055;-65
2022/09/14 10:01:34;;;;;;;1.60;0.50;;;18.50;99.90;;;;;;5073670;28;20078;-66
2022/09/14 10:04:13;;;;;;;1.55;0.50;;;18.50;99.90;;;;;;5072705;28;20057;-66
2022/09/14 10:06:48;;;;;;;1.80;0.50;;;18.50;99.90;;;;;;5073071;28;20044;-65
2022/09/14 10:09:20;;;;;;;1.10;0.40;;;18.40;99.90;;;;;;5073186;28;20048;-66
2022/09/14 10:11:47;;;;;;;2.97;0.40;;;18.30;99.90;;;;;;5073395;28;20579;-66
2022/09/14 10:14:32;;;;;;;2.70;0.73;;;18.30;99.90;;;;;;5072861;28;20057;-65
2022/09/14 10:17:17;;;;;;;1.20;0.40;;;18.30;99.90;;;;;;5073309;28;20093;-65
2022/09/14 10:19:53;;;;;;;4.25;0.70;;;18.40;99.90;;;;;;5073044;28;20052;-66
2022/09/14 10:22:33;;;;;;;0.93;0.40;;;18.40;99.90;;;;;;5073818;28;20044;-66
2022/09/14 10:25:00;;;;;;;5.32;0.75;;;18.60;99.90;;;;;;5058529;28;20052;-66
2022/09/14 10:27:38;;;;;;;2.00;0.47;;;18.60;99.90;;;;;;5076511;28;20044;-66
2022/09/14 10:30:11;;;;;;;3.95;0.80;;;18.60;99.90;;;;;;5076996;28;20044;-66
2022/09/14 10:32:39;;;;;;;2.20;0.70;;;18.50;99.90;;;;;;5077464;28;20049;-66
2022/09/14 10:35:12;;;;;;;3.38;0.80;;;18.50;99.90;;;;;;5077648;28;20067;-65
2022/09/14 10:37:57;;;;;;;2.58;0.70;;;18.40;99.90;;;;;;5076732;28;20493;-65
2022/09/14 10:40:37;;;;;;;1.90;0.60;;;18.40;99.90;;;;;;5076850;28;20051;-66
2022/09/14 10:43:08;;;;;;;3.33;0.50;;;18.40;99.90;;;;;;5077361;28;20102;-65
2022/09/14 10:45:38;;;;;;;1.38;0.45;;;18.30;99.90;;;;;;5075984;28;20099;-65
2022/09/14 10:48:29;;;;;;;2.05;0.60;;;18.30;99.90;;;;;;5076850;28;20048;-65
2022/09/14 10:51:19;;;;;;;2.47;0.63;;;18.40;99.90;;;;;;5077471;28;20151;-65
2022/09/14 10:53:54;;;;;;;1.55;0.60;;;18.40;99.90;;;;;;5076827;28;20123;-65
2022/09/14 10:56:32;;;;;;;1.23;0.40;;;18.40;99.90;;;;;;5077035;28;20422;-65
2022/09/14 10:59:14;;;;;;;2.63;0.50;;;18.50;99.90;;;;;;5076469;28;20066;-65
2022/09/14 11:02:13;;;;;;;2.67;0.60;;;18.60;99.90;;;;;;5076474;28;20529;-65
2022/09/14 11:05:00;;;;;;;2.33;0.60;;;18.70;99.90;;;;;;5075973;28;20094;-65
2022/09/14 11:07:45;;;;;;;;;;;18.70;99.90;;;;;;5077534;28;20079;-65
2022/09/14 11:10:28;;;;;;;2.75;0.68;;;18.60;99.90;;;;;;5075284;28;20012;-66
2022/09/14 11:13:15;;;;;;;2.55;0.63;;;18.60;99.90;;;;;;5076012;28;20382;-66
2022/09/14 11:15:55;;;;;;;3.08;0.70;;;18.50;99.90;;;;;;5076133;28;20040;-65
2022/09/14 11:18:40;;;;;;;2.50;0.68;;;18.50;99.90;;;;;;5075722;28;20040;-65
2022/09/14 11:21:31;;;;;;;2.83;0.60;;;18.40;99.90;;;;;;5074833;28;20045;-65
2022/09/14 11:24:13;;;;;;;2.50;0.70;;;18.30;99.90;;;;;;5076769;28;20045;-65
2022/09/14 11:26:57;;;;;;;2.42;0.70;;;18.30;99.90;;;;;;5076706;28;20083;-65
2022/09/14 11:29:29;;;;;;;3.05;0.70;;;18.30;99.90;;;;;;5075637;28;20551;-66
2022/09/14 11:32:10;;;;;;;3.15;0.70;;;18.20;99.90;;;;;;5075930;28;20053;-66
2022/09/14 11:34:44;;;;;;;2.83;0.60;;;18.20;99.90;;;;;;5075760;28;20477;-66
2022/09/14 11:37:15;;;;;;;3.90;0.80;;;18.20;99.90;;;;;;5074831;28;20085;-66
2022/09/14 11:39:54;;;;;;;2.53;0.77;;;18.20;99.90;;;;;;5076184;28;20044;-65
2022/09/14 11:42:54;;;;;;;2.65;0.93;;;18.30;99.90;;;;;;5075928;28;20214;-65
2022/09/14 11:45:42;;;;;;;2.20;0.80;;;18.30;99.90;;;;;;5075579;28;20049;-65
2022/09/14 11:48:24;;;;;;;1.85;0.65;;;18.30;99.90;;;;;;5074796;28;20448;-65
2022/09/14 11:51:00;;;;;;;1.33;0.50;;;18.20;99.90;;;;;;5076139;28;20048;-66
2022/09/14 11:53:26;;;;;;;;;;;18.30;99.90;;;;;;5076779;28;20127;-65
2022/09/14 11:55:52;;;;;;;2.85;0.70;;;18.30;99.90;;;;;;5075980;28;19983;-65
2022/09/14 11:58:24;;;;;;;1.92;0.70;;;18.30;99.90;;;;;;5075620;28;20051;-65
2022/09/14 12:01:25;;;;;;;2.15;0.60;;;18.30;99.90;;;;;;5075922;28;20052;-65
2022/09/14 12:03:58;;;;;;;2.38;0.70;;;18.40;99.90;;;;;;5069479;28;20048;-65
2022/09/14 12:06:30;;;;;;;4.18;1.10;;;18.40;99.90;;;;;;5075104;28;20095;-65
2022/09/14 12:09:21;;;;;;;2.95;0.80;;;18.40;99.90;;;;;;5074636;28;20063;-65
2022/09/14 12:11:52;;;;;;;4.63;0.85;;;18.50;99.90;;;;;;5075686;28;20460;-65
2022/09/14 12:14:25;;;;;;;2.35;0.75;;;18.70;99.90;;;;;;5075631;28;20448;-66
2022/09/14 12:17:19;;;;;;;1.08;0.50;;;18.90;99.90;;;;;;5074898;28;20436;-65
2022/09/14 12:19:47;;;;;;;1.55;0.80;;;19.00;99.90;;;;;;5074890;28;20052;-65
2022/09/14 12:22:34;;;;;;;3.88;1.10;;;19.10;99.90;;;;;;5074953;28;20086;-65
2022/09/14 12:25:21;;;;;;;1.95;0.60;;;19.10;99.90;;;;;;5074641;28;20040;-65
2022/09/14 12:27:48;;;;;;;2.45;0.50;;;19.10;99.90;;;;;;5073776;28;20052;-65
2022/09/14 12:30:53;;;;;;;2.85;0.60;;;19.10;99.90;;;;;;5074311;28;20134;-67
2022/09/14 12:33:31;;;;;;;1.85;0.57;;;19.20;99.90;;;;;;5074621;28;20049;-65
2022/09/14 12:36:09;;;;;;;3.72;0.75;;;19.10;99.90;;;;;;5074611;28;20044;-65
2022/09/14 12:38:51;;;;;;;3.85;0.60;;;19.00;99.90;;;;;;5074455;28;20102;-64
2022/09/14 12:41:19;;;;;;;2.58;1.00;;;19.00;99.90;;;;;;5074636;28;20052;-66
2022/09/14 12:43:48;;;;;;;2.00;0.70;;;19.00;99.90;;;;;;5074374;28;20136;-65
2022/09/14 12:46:19;;;;;;;1.75;0.50;;;19.00;99.90;;;;;;5074602;28;20405;-65
2022/09/14 12:48:48;;;;;;;2.15;0.57;;;19.00;99.90;;;;;;5074255;28;20564;-65
2022/09/14 12:51:31;;;;;;;2.17;0.63;;;19.00;99.90;;;;;;5074855;28;20435;-66
2022/09/14 12:53:57;;;;;;;1.65;0.55;;;18.90;99.90;;;;;;5074533;28;20040;-65
2022/09/14 12:56:39;;;;;;;2.30;0.65;;;18.80;99.90;;;;;;5074203;28;20123;-69
2022/09/14 12:59:11;;;;;;;2.13;0.55;;;18.80;99.90;;;;;;5074451;28;20481;-66
2022/09/14 13:01:48;;;;;;;1.25;0.50;;;18.80;99.90;;;;;;5074078;28;20045;-66
2022/09/14 13:04:27;;;;;;;3.05;0.80;;;18.80;99.90;;;;;;5074075;28;20056;-65
2022/09/14 13:06:54;;;;;;;1.38;0.65;;;18.80;99.90;;;;;;5074399;28;20049;-65
2022/09/14 13:09:28;;;;;;;1.63;0.65;;;18.80;99.90;;;;;;5074007;28;20079;-65
2022/09/14 13:12:00;;;;;;;4.78;1.10;;;18.80;99.90;;;;;;5073690;28;20570;-65